sensor_id;sensor_type;location;lat;lon;timestamp;pressure;altitude;pressure_sealevel;temperature;humidity
17521;BME280;8878;-33.370;-70.552;2023-02-23T00:01:39;92146.09;;;28.24;34.22
17521;BME280;8878;-33.370;-70.552;2023-02-23T00:04:09;92158.34;;;28.11;34.20
17521;BME280;8878;-33.370;-70.552;2023-02-23T00:06:40;92160.66;;;28.09;35.06
17521;BME280;8878;-33.370;-70.552;2023-02-23T00:09:10;92159.06;;;28.04;35.63
17521;BME280;8878;-33.370;-70.552;2023-02-23T00:11:49;92155.09;;;27.94;34.92
17521;BME280;8878;-33.370;-70.552;2023-02-23T00:14:19;92161.16;;;27.81;35.73
17521;BME280;8878;-33.370;-70.552;2023-02-23T00:16:48;92160.91;;;27.59;36.51
17521;BME280;8878;-33.370;-70.552;2023-02-23T00:19:18;92164.84;;;27.62;36.38
17521;BME280;8878;-33.370;-70.552;2023-02-23T00:21:53;92163.88;;;27.51;36.51
17521;BME280;8878;-33.370;-70.552;2023-02-23T00:24:33;92170.34;;;27.09;36.33
17521;BME280;8878;-33.370;-70.552;2023-02-23T00:27:05;92168.38;;;27.06;36.62
17521;BME280;8878;-33.370;-70.552;2023-02-23T00:29:36;92169.06;;;27.29;35.92
17521;BME280;8878;-33.370;-70.552;2023-02-23T00:32:06;92170.69;;;27.38;36.84
17521;BME280;8878;-33.370;-70.552;2023-02-23T00:34:36;92179.25;;;27.40;36.76
17521;BME280;8878;-33.370;-70.552;2023-02-23T00:37:09;92179.00;;;27.22;37.36
17521;BME280;8878;-33.370;-70.552;2023-02-23T00:39:38;92177.31;;;27.10;37.61
17521;BME280;8878;-33.370;-70.552;2023-02-23T00:42:08;92175.03;;;27.12;37.14
17521;BME280;8878;-33.370;-70.552;2023-02-23T00:44:40;92178.78;;;27.04;37.66
17521;BME280;8878;-33.370;-70.552;2023-02-23T00:47:09;92182.13;;;26.94;38.55
17521;BME280;8878;-33.370;-70.552;2023-02-23T00:49:39;92185.34;;;26.77;38.67
17521;BME280;8878;-33.370;-70.552;2023-02-23T00:52:12;92187.09;;;26.66;38.92
17521;BME280;8878;-33.370;-70.552;2023-02-23T00:54:42;92192.91;;;26.64;39.44
17521;BME280;8878;-33.370;-70.552;2023-02-23T00:57:11;92194.28;;;26.55;39.58
17521;BME280;8878;-33.370;-70.552;2023-02-23T00:59:40;92192.00;;;26.57;39.87
17521;BME280;8878;-33.370;-70.552;2023-02-23T01:02:10;92194.78;;;26.37;40.37
17521;BME280;8878;-33.370;-70.552;2023-02-23T01:04:39;92193.94;;;26.33;40.13
17521;BME280;8878;-33.370;-70.552;2023-02-23T01:07:09;92203.34;;;26.20;40.78
17521;BME280;8878;-33.370;-70.552;2023-02-23T01:09:41;92201.38;;;26.17;40.24
17521;BME280;8878;-33.370;-70.552;2023-02-23T01:12:11;92194.47;;;26.20;40.42
17521;BME280;8878;-33.370;-70.552;2023-02-23T01:14:41;92198.50;;;26.29;40.02
17521;BME280;8878;-33.370;-70.552;2023-02-23T01:17:11;92200.81;;;26.27;40.55
17521;BME280;8878;-33.370;-70.552;2023-02-23T01:19:40;92202.88;;;26.15;40.56
17521;BME280;8878;-33.370;-70.552;2023-02-23T01:22:09;92196.72;;;25.95;40.96
17521;BME280;8878;-33.370;-70.552;2023-02-23T01:24:40;92194.63;;;25.85;41.48
17521;BME280;8878;-33.370;-70.552;2023-02-23T01:27:10;92203.78;;;25.80;41.27
17521;BME280;8878;-33.370;-70.552;2023-02-23T01:29:40;92206.88;;;25.79;41.59
17521;BME280;8878;-33.370;-70.552;2023-02-23T01:32:09;92200.41;;;25.64;41.67
17521;BME280;8878;-33.370;-70.552;2023-02-23T01:34:39;92193.50;;;25.66;41.31
17521;BME280;8878;-33.370;-70.552;2023-02-23T01:37:08;92199.25;;;25.65;41.70
17521;BME280;8878;-33.370;-70.552;2023-02-23T01:39:37;92201.38;;;25.56;41.70
17521;BME280;8878;-33.370;-70.552;2023-02-23T01:42:12;92201.31;;;25.52;42.23
17521;BME280;8878;-33.370;-70.552;2023-02-23T01:45:20;92197.19;;;25.39;41.98
17521;BME280;8878;-33.370;-70.552;2023-02-23T01:47:55;92203.16;;;25.48;41.57
17521;BME280;8878;-33.370;-70.552;2023-02-23T01:50:32;92207.44;;;25.49;41.59
17521;BME280;8878;-33.370;-70.552;2023-02-23T01:53:05;92203.03;;;25.41;41.96
17521;BME280;8878;-33.370;-70.552;2023-02-23T01:55:34;92200.53;;;25.32;42.49
17521;BME280;8878;-33.370;-70.552;2023-02-23T01:58:08;92198.97;;;25.31;42.82
17521;BME280;8878;-33.370;-70.552;2023-02-23T02:00:43;92204.56;;;25.23;43.15
17521;BME280;8878;-33.370;-70.552;2023-02-23T02:03:18;92208.81;;;25.05;43.18
17521;BME280;8878;-33.370;-70.552;2023-02-23T02:05:49;92198.72;;;25.02;43.11
17521;BME280;8878;-33.370;-70.552;2023-02-23T02:08:19;92199.78;;;24.97;43.04
17521;BME280;8878;-33.370;-70.552;2023-02-23T02:10:50;92198.31;;;25.00;43.25
17521;BME280;8878;-33.370;-70.552;2023-02-23T02:13:27;92201.50;;;25.05;42.86
17521;BME280;8878;-33.370;-70.552;2023-02-23T02:16:22;92203.06;;;25.06;42.00
17521;BME280;8878;-33.370;-70.552;2023-02-23T02:25:19;92198.47;;;25.07;42.05
17521;BME280;8878;-33.370;-70.552;2023-02-23T02:31:21;92211.22;;;24.90;42.48
17521;BME280;8878;-33.370;-70.552;2023-02-23T02:34:23;92210.94;;;24.80;42.66
17521;BME280;8878;-33.370;-70.552;2023-02-23T02:37:19;92208.75;;;24.85;42.83
17521;BME280;8878;-33.370;-70.552;2023-02-23T02:39:58;92208.75;;;24.85;44.11
17521;BME280;8878;-33.370;-70.552;2023-02-23T02:42:58;92206.47;;;24.87;44.38
17521;BME280;8878;-33.370;-70.552;2023-02-23T02:45:42;92208.44;;;24.71;44.62
17521;BME280;8878;-33.370;-70.552;2023-02-23T02:48:22;92212.63;;;24.53;45.97
17521;BME280;8878;-33.370;-70.552;2023-02-23T02:51:02;92211.06;;;24.52;45.62
17521;BME280;8878;-33.370;-70.552;2023-02-23T02:53:43;92214.91;;;24.51;46.11
17521;BME280;8878;-33.370;-70.552;2023-02-23T02:56:17;92209.34;;;24.44;45.83
17521;BME280;8878;-33.370;-70.552;2023-02-23T02:58:48;92204.47;;;24.34;45.81
17521;BME280;8878;-33.370;-70.552;2023-02-23T03:01:20;92201.94;;;24.25;46.05
17521;BME280;8878;-33.370;-70.552;2023-02-23T03:04:20;92206.47;;;24.21;46.32
17521;BME280;8878;-33.370;-70.552;2023-02-23T03:07:11;92211.59;;;24.26;45.51
17521;BME280;8878;-33.370;-70.552;2023-02-23T03:10:07;92209.75;;;24.30;45.12
17521;BME280;8878;-33.370;-70.552;2023-02-23T03:13:01;92207.94;;;24.18;45.70
17521;BME280;8878;-33.370;-70.552;2023-02-23T03:15:58;92204.13;;;24.19;45.92
17521;BME280;8878;-33.370;-70.552;2023-02-23T03:18:56;92201.31;;;24.16;45.77
17521;BME280;8878;-33.370;-70.552;2023-02-23T03:21:49;92202.53;;;24.18;45.10
17521;BME280;8878;-33.370;-70.552;2023-02-23T03:24:40;92201.91;;;24.09;45.60
17521;BME280;8878;-33.370;-70.552;2023-02-23T03:27:41;92209.13;;;23.90;45.30
17521;BME280;8878;-33.370;-70.552;2023-02-23T03:30:34;92211.03;;;23.89;45.30
17521;BME280;8878;-33.370;-70.552;2023-02-23T03:33:29;92210.41;;;23.96;46.00
17521;BME280;8878;-33.370;-70.552;2023-02-23T03:36:19;92212.00;;;23.97;45.31
17521;BME280;8878;-33.370;-70.552;2023-02-23T03:39:13;92213.03;;;23.92;45.31
17521;BME280;8878;-33.370;-70.552;2023-02-23T03:42:03;92211.91;;;23.93;45.11
17521;BME280;8878;-33.370;-70.552;2023-02-23T03:44:55;92213.13;;;23.80;45.51
17521;BME280;8878;-33.370;-70.552;2023-02-23T03:47:43;92216.63;;;23.68;46.05
17521;BME280;8878;-33.370;-70.552;2023-02-23T03:50:33;92218.31;;;23.73;45.16
17521;BME280;8878;-33.370;-70.552;2023-02-23T03:53:25;92213.09;;;23.64;45.54
17521;BME280;8878;-33.370;-70.552;2023-02-23T03:56:14;92212.56;;;23.59;45.99
17521;BME280;8878;-33.370;-70.552;2023-02-23T03:59:02;92205.09;;;23.68;45.55
17521;BME280;8878;-33.370;-70.552;2023-02-23T04:01:54;92205.69;;;23.61;45.07
17521;BME280;8878;-33.370;-70.552;2023-02-23T04:04:42;92210.28;;;23.61;45.77
17521;BME280;8878;-33.370;-70.552;2023-02-23T04:07:30;92206.97;;;23.52;45.93
17521;BME280;8878;-33.370;-70.552;2023-02-23T04:10:18;92209.22;;;23.50;45.68
17521;BME280;8878;-33.370;-70.552;2023-02-23T04:13:07;92206.63;;;23.41;45.50
17521;BME280;8878;-33.370;-70.552;2023-02-23T04:15:49;92208.09;;;23.38;45.02
17521;BME280;8878;-33.370;-70.552;2023-02-23T04:18:22;92206.75;;;23.45;45.05
17521;BME280;8878;-33.370;-70.552;2023-02-23T04:20:53;92217.41;;;23.41;44.82
17521;BME280;8878;-33.370;-70.552;2023-02-23T04:23:23;92229.84;;;23.46;44.64
17521;BME280;8878;-33.370;-70.552;2023-02-23T04:25:53;92214.00;;;23.28;46.36
17521;BME280;8878;-33.370;-70.552;2023-02-23T04:28:25;92209.66;;;23.12;45.57
17521;BME280;8878;-33.370;-70.552;2023-02-23T04:30:55;92215.16;;;23.03;46.61
17521;BME280;8878;-33.370;-70.552;2023-02-23T04:33:26;92212.25;;;23.08;46.41
17521;BME280;8878;-33.370;-70.552;2023-02-23T04:35:55;92213.16;;;23.00;46.60
17521;BME280;8878;-33.370;-70.552;2023-02-23T04:38:25;92207.09;;;23.03;46.04
17521;BME280;8878;-33.370;-70.552;2023-02-23T04:40:54;92201.59;;;23.12;45.23
17521;BME280;8878;-33.370;-70.552;2023-02-23T04:43:23;92201.63;;;22.99;45.57
17521;BME280;8878;-33.370;-70.552;2023-02-23T04:45:52;92198.41;;;22.94;45.61
17521;BME280;8878;-33.370;-70.552;2023-02-23T04:48:22;92191.78;;;22.91;44.90
17521;BME280;8878;-33.370;-70.552;2023-02-23T04:50:55;92190.75;;;22.96;45.46
17521;BME280;8878;-33.370;-70.552;2023-02-23T04:53:25;92196.63;;;22.86;45.89
17521;BME280;8878;-33.370;-70.552;2023-02-23T04:55:54;92189.34;;;22.74;45.68
17521;BME280;8878;-33.370;-70.552;2023-02-23T04:58:24;92191.44;;;22.81;45.41
17521;BME280;8878;-33.370;-70.552;2023-02-23T05:00:53;92183.50;;;22.84;45.31
17521;BME280;8878;-33.370;-70.552;2023-02-23T05:03:22;92181.81;;;22.92;45.33
17521;BME280;8878;-33.370;-70.552;2023-02-23T05:05:51;92180.69;;;22.93;44.88
17521;BME280;8878;-33.370;-70.552;2023-02-23T05:08:22;92179.94;;;22.80;44.70
17521;BME280;8878;-33.370;-70.552;2023-02-23T05:10:54;92171.09;;;22.80;44.53
17521;BME280;8878;-33.370;-70.552;2023-02-23T05:13:23;92174.41;;;22.89;44.59
17521;BME280;8878;-33.370;-70.552;2023-02-23T05:15:56;92170.19;;;22.76;45.46
17521;BME280;8878;-33.370;-70.552;2023-02-23T05:18:25;92173.97;;;22.75;44.81
17521;BME280;8878;-33.370;-70.552;2023-02-23T05:21:01;92168.28;;;22.64;45.49
17521;BME280;8878;-33.370;-70.552;2023-02-23T05:23:33;92167.38;;;22.60;45.20
17521;BME280;8878;-33.370;-70.552;2023-02-23T05:26:04;92158.31;;;22.64;45.20
17521;BME280;8878;-33.370;-70.552;2023-02-23T05:28:35;92157.41;;;22.60;46.21
17521;BME280;8878;-33.370;-70.552;2023-02-23T05:31:05;92153.28;;;22.51;46.42
17521;BME280;8878;-33.370;-70.552;2023-02-23T05:33:36;92148.56;;;22.48;46.12
17521;BME280;8878;-33.370;-70.552;2023-02-23T05:36:09;92146.66;;;22.48;46.63
17521;BME280;8878;-33.370;-70.552;2023-02-23T05:38:40;92146.66;;;22.48;47.33
17521;BME280;8878;-33.370;-70.552;2023-02-23T05:41:11;92142.19;;;22.40;47.38
17521;BME280;8878;-33.370;-70.552;2023-02-23T05:43:40;92137.94;;;22.39;47.76
17521;BME280;8878;-33.370;-70.552;2023-02-23T05:46:12;92141.00;;;22.38;46.78
17521;BME280;8878;-33.370;-70.552;2023-02-23T05:48:42;92143.09;;;22.32;46.95
17521;BME280;8878;-33.370;-70.552;2023-02-23T05:51:13;92145.53;;;21.88;47.04
17521;BME280;8878;-33.370;-70.552;2023-02-23T05:53:45;92138.25;;;21.77;47.95
17521;BME280;8878;-33.370;-70.552;2023-02-23T05:56:16;92131.22;;;21.84;47.91
17521;BME280;8878;-33.370;-70.552;2023-02-23T05:58:47;92129.69;;;22.08;47.04
17521;BME280;8878;-33.370;-70.552;2023-02-23T06:01:17;92127.78;;;22.20;46.90
17521;BME280;8878;-33.370;-70.552;2023-02-23T06:03:47;92129.56;;;22.29;46.88
17521;BME280;8878;-33.370;-70.552;2023-02-23T06:06:16;92123.63;;;22.11;46.36
17521;BME280;8878;-33.370;-70.552;2023-02-23T06:08:49;92118.81;;;22.04;46.49
17521;BME280;8878;-33.370;-70.552;2023-02-23T06:11:19;92122.19;;;22.13;46.66
17521;BME280;8878;-33.370;-70.552;2023-02-23T06:13:49;92119.72;;;22.20;46.46
17521;BME280;8878;-33.370;-70.552;2023-02-23T06:16:18;92126.44;;;22.26;46.89
17521;BME280;8878;-33.370;-70.552;2023-02-23T06:18:48;92120.25;;;22.26;46.69
17521;BME280;8878;-33.370;-70.552;2023-02-23T06:21:17;92128.56;;;22.21;47.16
17521;BME280;8878;-33.370;-70.552;2023-02-23T06:23:48;92123.63;;;22.11;47.85
17521;BME280;8878;-33.370;-70.552;2023-02-23T06:26:18;92127.00;;;22.08;47.78
17521;BME280;8878;-33.370;-70.552;2023-02-23T06:28:48;92132.50;;;21.99;47.02
17521;BME280;8878;-33.370;-70.552;2023-02-23T06:31:17;92136.63;;;21.97;47.71
17521;BME280;8878;-33.370;-70.552;2023-02-23T06:33:46;92130.19;;;21.89;47.98
17521;BME280;8878;-33.370;-70.552;2023-02-23T06:36:16;92121.16;;;21.94;48.33
17521;BME280;8878;-33.370;-70.552;2023-02-23T06:38:45;92114.25;;;22.05;47.36
17521;BME280;8878;-33.370;-70.552;2023-02-23T06:41:16;92115.47;;;22.07;47.98
17521;BME280;8878;-33.370;-70.552;2023-02-23T06:43:45;92113.91;;;22.06;47.80
17521;BME280;8878;-33.370;-70.552;2023-02-23T06:46:14;92119.38;;;21.98;47.50
17521;BME280;8878;-33.370;-70.552;2023-02-23T06:48:44;92116.38;;;21.99;47.32
17521;BME280;8878;-33.370;-70.552;2023-02-23T06:51:13;92112.88;;;21.86;48.00
17521;BME280;8878;-33.370;-70.552;2023-02-23T06:53:43;92112.66;;;21.79;48.93
17521;BME280;8878;-33.370;-70.552;2023-02-23T06:56:15;92105.94;;;21.73;49.20
17521;BME280;8878;-33.370;-70.552;2023-02-23T06:58:44;92105.72;;;21.78;49.32
17521;BME280;8878;-33.370;-70.552;2023-02-23T07:01:14;92114.00;;;21.73;49.79
17521;BME280;8878;-33.370;-70.552;2023-02-23T07:03:44;92106.25;;;21.72;49.50
17521;BME280;8878;-33.370;-70.552;2023-02-23T07:06:13;92110.16;;;21.74;48.75
17521;BME280;8878;-33.370;-70.552;2023-02-23T07:08:42;92110.41;;;21.69;48.65
17521;BME280;8878;-33.370;-70.552;2023-02-23T07:11:15;92103.13;;;21.70;48.84
17521;BME280;8878;-33.370;-70.552;2023-02-23T07:13:45;92104.78;;;21.74;48.61
17521;BME280;8878;-33.370;-70.552;2023-02-23T07:16:14;92104.78;;;21.74;47.85
17521;BME280;8878;-33.370;-70.552;2023-02-23T07:18:44;92095.94;;;21.62;48.57
17521;BME280;8878;-33.370;-70.552;2023-02-23T07:21:13;92089.16;;;21.64;48.14
17521;BME280;8878;-33.370;-70.552;2023-02-23T07:23:42;92090.03;;;21.68;47.91
17521;BME280;8878;-33.370;-70.552;2023-02-23T07:26:12;92096.50;;;21.55;48.25
17521;BME280;8878;-33.370;-70.552;2023-02-23T07:28:44;92086.88;;;21.54;48.86
17521;BME280;8878;-33.370;-70.552;2023-02-23T07:31:13;92080.06;;;21.57;49.30
17521;BME280;8878;-33.370;-70.552;2023-02-23T07:33:43;92081.75;;;21.49;49.87
17521;BME280;8878;-33.370;-70.552;2023-02-23T07:36:12;92079.06;;;21.49;49.22
17521;BME280;8878;-33.370;-70.552;2023-02-23T07:38:41;92074.56;;;21.53;50.07
17521;BME280;8878;-33.370;-70.552;2023-02-23T07:41:11;92067.63;;;21.40;50.14
17521;BME280;8878;-33.370;-70.552;2023-02-23T07:43:40;92070.53;;;21.35;50.36
17521;BME280;8878;-33.370;-70.552;2023-02-23T07:46:11;92077.94;;;21.38;49.86
17521;BME280;8878;-33.370;-70.552;2023-02-23T07:48:41;92062.25;;;21.40;49.64
17521;BME280;8878;-33.370;-70.552;2023-02-23T07:51:11;92072.22;;;21.39;49.18
17521;BME280;8878;-33.370;-70.552;2023-02-23T07:53:42;92069.34;;;21.44;49.08
17521;BME280;8878;-33.370;-70.552;2023-02-23T07:56:14;92068.09;;;21.42;49.76
17521;BME280;8878;-33.370;-70.552;2023-02-23T07:58:44;92062.84;;;21.45;49.42
17521;BME280;8878;-33.370;-70.552;2023-02-23T08:01:15;92058.94;;;21.43;49.73
17521;BME280;8878;-33.370;-70.552;2023-02-23T08:03:44;92057.25;;;21.51;48.64
17521;BME280;8878;-33.370;-70.552;2023-02-23T08:06:15;92054.13;;;21.36;47.67
17521;BME280;8878;-33.370;-70.552;2023-02-23T08:08:45;92049.72;;;21.32;48.66
17521;BME280;8878;-33.370;-70.552;2023-02-23T08:11:14;92044.59;;;21.39;48.29
17521;BME280;8878;-33.370;-70.552;2023-02-23T08:13:43;92042.38;;;21.53;48.89
17521;BME280;8878;-33.370;-70.552;2023-02-23T08:16:14;92043.28;;;21.45;48.57
17521;BME280;8878;-33.370;-70.552;2023-02-23T08:18:44;92037.69;;;21.38;48.03
17521;BME280;8878;-33.370;-70.552;2023-02-23T08:21:13;92042.25;;;21.37;48.69
17521;BME280;8878;-33.370;-70.552;2023-02-23T08:23:42;92045.38;;;21.39;48.56
17521;BME280;8878;-33.370;-70.552;2023-02-23T08:26:13;92050.88;;;21.31;48.21
17521;BME280;8878;-33.370;-70.552;2023-02-23T08:28:42;92052.03;;;21.09;48.75
17521;BME280;8878;-33.370;-70.552;2023-02-23T08:31:14;92050.13;;;21.09;48.77
17521;BME280;8878;-33.370;-70.552;2023-02-23T08:33:46;92040.88;;;21.19;48.99
17521;BME280;8878;-33.370;-70.552;2023-02-23T08:36:15;92044.91;;;21.25;49.59
17521;BME280;8878;-33.370;-70.552;2023-02-23T08:38:47;92048.75;;;21.24;49.75
17521;BME280;8878;-33.370;-70.552;2023-02-23T08:41:17;92042.13;;;21.34;48.71
17521;BME280;8878;-33.370;-70.552;2023-02-23T08:43:46;92049.84;;;21.35;48.57
17521;BME280;8878;-33.370;-70.552;2023-02-23T08:46:18;92056.78;;;21.24;49.71
17521;BME280;8878;-33.370;-70.552;2023-02-23T08:48:47;92052.63;;;21.27;48.81
17521;BME280;8878;-33.370;-70.552;2023-02-23T08:51:17;92055.03;;;21.07;48.53
17521;BME280;8878;-33.370;-70.552;2023-02-23T08:53:48;92054.50;;;21.14;50.34
17521;BME280;8878;-33.370;-70.552;2023-02-23T08:56:17;92063.94;;;20.99;51.16
17521;BME280;8878;-33.370;-70.552;2023-02-23T08:58:47;92075.38;;;21.08;49.90
17521;BME280;8878;-33.370;-70.552;2023-02-23T09:01:19;92068.16;;;21.21;49.87
17521;BME280;8878;-33.370;-70.552;2023-02-23T09:03:49;92074.28;;;21.09;50.25
17521;BME280;8878;-33.370;-70.552;2023-02-23T09:06:20;92080.69;;;20.96;49.75
17521;BME280;8878;-33.370;-70.552;2023-02-23T09:08:52;92065.53;;;21.00;47.74
17521;BME280;8878;-33.370;-70.552;2023-02-23T09:11:22;92078.94;;;21.00;50.13
17521;BME280;8878;-33.370;-70.552;2023-02-23T09:13:53;92087.31;;;20.99;49.71
17521;BME280;8878;-33.370;-70.552;2023-02-23T09:16:24;92076.63;;;20.78;47.94
17521;BME280;8878;-33.370;-70.552;2023-02-23T09:18:53;92077.44;;;20.91;49.93
17521;BME280;8878;-33.370;-70.552;2023-02-23T09:21:25;92086.97;;;21.00;50.07
17521;BME280;8878;-33.370;-70.552;2023-02-23T09:23:56;92086.81;;;20.85;49.62
17521;BME280;8878;-33.370;-70.552;2023-02-23T09:26:25;92092.50;;;20.83;48.77
17521;BME280;8878;-33.370;-70.552;2023-02-23T09:28:56;92088.88;;;21.00;48.89
17521;BME280;8878;-33.370;-70.552;2023-02-23T09:31:28;92091.91;;;21.10;49.99
17521;BME280;8878;-33.370;-70.552;2023-02-23T09:33:57;92092.69;;;21.11;49.57
17521;BME280;8878;-33.370;-70.552;2023-02-23T09:36:28;92090.47;;;21.13;49.74
17521;BME280;8878;-33.370;-70.552;2023-02-23T09:38:59;92088.78;;;21.08;50.16
17521;BME280;8878;-33.370;-70.552;2023-02-23T09:41:45;92098.59;;;21.04;49.94
17521;BME280;8878;-33.370;-70.552;2023-02-23T09:44:25;92092.56;;;20.95;48.89
17521;BME280;8878;-33.370;-70.552;2023-02-23T09:47:08;92093.50;;;20.79;49.00
17521;BME280;8878;-33.370;-70.552;2023-02-23T09:49:44;92094.06;;;20.84;49.98
17521;BME280;8878;-33.370;-70.552;2023-02-23T09:52:16;92097.56;;;20.97;49.13
17521;BME280;8878;-33.370;-70.552;2023-02-23T09:54:46;92090.78;;;20.99;49.19
17521;BME280;8878;-33.370;-70.552;2023-02-23T09:57:20;92102.41;;;21.03;49.31
17521;BME280;8878;-33.370;-70.552;2023-02-23T09:59:51;92105.97;;;20.95;49.14
17521;BME280;8878;-33.370;-70.552;2023-02-23T10:02:27;92103.94;;;20.92;49.15
17521;BME280;8878;-33.370;-70.552;2023-02-23T10:05:03;92103.91;;;20.80;49.14
17521;BME280;8878;-33.370;-70.552;2023-02-23T10:07:43;92105.34;;;20.57;48.78
17521;BME280;8878;-33.370;-70.552;2023-02-23T10:10:20;92098.66;;;20.63;48.82
17521;BME280;8878;-33.370;-70.552;2023-02-23T10:13:01;92102.31;;;20.79;48.01
17521;BME280;8878;-33.370;-70.552;2023-02-23T10:15:37;92103.81;;;20.89;48.47
17521;BME280;8878;-33.370;-70.552;2023-02-23T10:18:22;92104.28;;;20.70;48.20
17521;BME280;8878;-33.370;-70.552;2023-02-23T10:21:01;92102.06;;;20.72;48.12
17521;BME280;8878;-33.370;-70.552;2023-02-23T10:23:35;92106.25;;;20.61;48.43
17521;BME280;8878;-33.370;-70.552;2023-02-23T10:26:07;92113.56;;;20.73;48.94
17521;BME280;8878;-33.370;-70.552;2023-02-23T10:28:42;92117.22;;;20.68;48.96
17521;BME280;8878;-33.370;-70.552;2023-02-23T10:31:24;92113.38;;;20.78;48.62
17521;BME280;8878;-33.370;-70.552;2023-02-23T10:33:59;92112.44;;;20.94;48.49
17521;BME280;8878;-33.370;-70.552;2023-02-23T10:36:35;92121.91;;;20.92;48.90
17521;BME280;8878;-33.370;-70.552;2023-02-23T10:39:06;92118.44;;;20.91;48.53
17521;BME280;8878;-33.370;-70.552;2023-02-23T10:41:38;92113.75;;;20.88;48.65
17521;BME280;8878;-33.370;-70.552;2023-02-23T10:44:17;92119.56;;;20.90;48.42
17521;BME280;8878;-33.370;-70.552;2023-02-23T10:46:50;92127.56;;;20.78;48.68
17521;BME280;8878;-33.370;-70.552;2023-02-23T10:49:25;92129.34;;;20.74;48.20
17521;BME280;8878;-33.370;-70.552;2023-02-23T10:51:56;92132.91;;;20.78;47.78
17521;BME280;8878;-33.370;-70.552;2023-02-23T10:57:21;92138.75;;;20.80;47.59
17521;BME280;8878;-33.370;-70.552;2023-02-23T11:00:27;92141.25;;;20.97;47.21
17521;BME280;8878;-33.370;-70.552;2023-02-23T11:03:00;92152.72;;;21.06;46.67
17521;BME280;8878;-33.370;-70.552;2023-02-23T11:05:43;92151.03;;;20.81;47.48
17521;BME280;8878;-33.370;-70.552;2023-02-23T11:08:20;92152.72;;;21.06;46.65
17521;BME280;8878;-33.370;-70.552;2023-02-23T11:11:16;92147.00;;;21.29;46.84
17521;BME280;8878;-33.370;-70.552;2023-02-23T11:13:46;92144.31;;;21.29;48.10
17521;BME280;8878;-33.370;-70.552;2023-02-23T11:16:18;92151.91;;;21.27;47.79
17521;BME280;8878;-33.370;-70.552;2023-02-23T11:18:53;92144.34;;;21.08;47.64
17521;BME280;8878;-33.370;-70.552;2023-02-23T11:21:27;92143.28;;;21.21;47.25
17521;BME280;8878;-33.370;-70.552;2023-02-23T11:31:49;92148.91;;;21.85;45.80
17521;BME280;8878;-33.370;-70.552;2023-02-23T11:34:26;92152.16;;;21.79;45.03
17521;BME280;8878;-33.370;-70.552;2023-02-23T11:37:06;92147.81;;;21.99;45.69
17521;BME280;8878;-33.370;-70.552;2023-02-23T11:39:50;92148.59;;;22.11;46.90
17521;BME280;8878;-33.370;-70.552;2023-02-23T11:42:21;92149.00;;;21.89;46.58
17521;BME280;8878;-33.370;-70.552;2023-02-23T11:45:02;92154.31;;;22.10;46.42
17521;BME280;8878;-33.370;-70.552;2023-02-23T11:47:32;92151.41;;;22.15;45.86
17521;BME280;8878;-33.370;-70.552;2023-02-23T11:50:03;92154.88;;;22.03;46.75
17521;BME280;8878;-33.370;-70.552;2023-02-23T11:52:34;92159.25;;;22.08;46.10
17521;BME280;8878;-33.370;-70.552;2023-02-23T11:55:06;92143.56;;;22.22;46.03
17521;BME280;8878;-33.370;-70.552;2023-02-23T11:57:35;92154.44;;;22.38;45.27
17521;BME280;8878;-33.370;-70.552;2023-02-23T12:00:11;92167.72;;;22.58;44.96
17521;BME280;8878;-33.370;-70.552;2023-02-23T12:02:47;92159.88;;;22.78;43.78
17521;BME280;8878;-33.370;-70.552;2023-02-23T12:05:21;92161.84;;;22.81;43.39
17521;BME280;8878;-33.370;-70.552;2023-02-23T12:07:58;92163.34;;;22.78;42.38
17521;BME280;8878;-33.370;-70.552;2023-02-23T12:10:33;92158.44;;;23.08;42.18
17521;BME280;8878;-33.370;-70.552;2023-02-23T12:13:24;92155.78;;;23.24;42.33
17521;BME280;8878;-33.370;-70.552;2023-02-23T12:15:58;92163.38;;;23.06;41.88
17521;BME280;8878;-33.370;-70.552;2023-02-23T12:18:39;92157.19;;;22.78;41.66
17521;BME280;8878;-33.370;-70.552;2023-02-23T12:21:23;92161.84;;;22.93;41.64
17521;BME280;8878;-33.370;-70.552;2023-02-23T12:24:08;92160.63;;;23.18;40.87
17521;BME280;8878;-33.370;-70.552;2023-02-23T12:26:42;92158.66;;;23.31;40.30
17521;BME280;8878;-33.370;-70.552;2023-02-23T12:29:19;92166.78;;;23.59;39.67
17521;BME280;8878;-33.370;-70.552;2023-02-23T12:31:53;92161.91;;;23.36;40.62
17521;BME280;8878;-33.370;-70.552;2023-02-23T12:34:31;92165.22;;;23.46;40.69
17521;BME280;8878;-33.370;-70.552;2023-02-23T12:37:15;92162.31;;;23.51;41.25
17521;BME280;8878;-33.370;-70.552;2023-02-23T12:39:51;92161.88;;;23.49;41.68
17521;BME280;8878;-33.370;-70.552;2023-02-23T12:42:34;92168.81;;;23.93;41.05
17521;BME280;8878;-33.370;-70.552;2023-02-23T12:45:12;92171.31;;;23.70;40.41
17521;BME280;8878;-33.370;-70.552;2023-02-23T12:47:48;92175.47;;;23.84;40.77
17521;BME280;8878;-33.370;-70.552;2023-02-23T12:50:25;92170.81;;;23.53;38.75
17521;BME280;8878;-33.370;-70.552;2023-02-23T12:52:57;92164.72;;;24.15;39.17
17521;BME280;8878;-33.370;-70.552;2023-02-23T12:55:35;92160.97;;;23.88;38.81
17521;BME280;8878;-33.370;-70.552;2023-02-23T12:58:16;92163.59;;;24.32;39.17
17521;BME280;8878;-33.370;-70.552;2023-02-23T13:00:54;92155.41;;;24.44;38.66
17521;BME280;8878;-33.370;-70.552;2023-02-23T13:03:45;92165.66;;;24.54;38.01
17521;BME280;8878;-33.370;-70.552;2023-02-23T13:06:24;92157.91;;;24.52;39.16
17521;BME280;8878;-33.370;-70.552;2023-02-23T13:09:04;92157.06;;;24.83;38.62
17521;BME280;8878;-33.370;-70.552;2023-02-23T13:11:47;92157.19;;;24.71;38.96
17521;BME280;8878;-33.370;-70.552;2023-02-23T13:14:25;92153.84;;;25.13;38.35
17521;BME280;8878;-33.370;-70.552;2023-02-23T13:17:02;92157.84;;;24.49;37.68
17521;BME280;8878;-33.370;-70.552;2023-02-23T13:19:37;92164.44;;;24.51;38.28
17521;BME280;8878;-33.370;-70.552;2023-02-23T13:22:22;92158.31;;;24.70;37.64
17521;BME280;8878;-33.370;-70.552;2023-02-23T13:24:56;92158.03;;;24.75;37.92
17521;BME280;8878;-33.370;-70.552;2023-02-23T13:27:33;92157.28;;;24.94;37.35
17521;BME280;8878;-33.370;-70.552;2023-02-23T13:30:04;92159.59;;;25.11;37.53
17521;BME280;8878;-33.370;-70.552;2023-02-23T13:32:37;92160.44;;;25.34;37.86
17521;BME280;8878;-33.370;-70.552;2023-02-23T13:35:12;92166.25;;;24.98;37.52
17521;BME280;8878;-33.370;-70.552;2023-02-23T13:37:44;92158.13;;;25.14;37.60
17521;BME280;8878;-33.370;-70.552;2023-02-23T13:40:22;92172.31;;;25.49;36.70